createdAt,value
2023-03-17T00:00:57.649Z,97816.91
2023-03-17T00:03:30.366Z,97818.94
2023-03-17T00:06:04.549Z,97820.69
2023-03-17T00:08:36.330Z,97813.91
2023-03-17T00:11:14.972Z,97807.28
2023-03-17T00:13:46.290Z,97809.59
2023-03-17T00:16:20.488Z,97809.41
2023-03-17T00:18:51.383Z,97808.28
2023-03-17T00:21:28.072Z,97793.81
2023-03-17T00:23:59.567Z,97786.69
2023-03-17T00:26:32.580Z,97787.69
2023-03-17T00:29:03.257Z,97784.53
2023-03-17T00:31:34.302Z,97785.09
2023-03-17T00:34:04.650Z,97785.78
2023-03-17T00:36:37.591Z,97778.34
2023-03-17T00:44:15.881Z,97772.19
2023-03-17T00:46:46.655Z,97775.47
2023-03-17T00:49:19.796Z,97773.84
2023-03-17T00:51:51.262Z,97765.19
2023-03-17T00:54:23.044Z,97770.47
2023-03-17T00:56:56.461Z,97764.88
2023-03-17T00:59:30.275Z,97758.06
2023-03-17T01:02:01.035Z,97755.88
2023-03-17T01:04:30.920Z,97750.22
2023-03-17T01:07:03.697Z,97751.94
2023-03-17T01:09:34.209Z,97751.34
2023-03-17T01:12:08.378Z,97741.28
2023-03-17T01:14:38.439Z,97737.59
2023-03-17T01:17:13.305Z,97730.66
2023-03-17T01:19:43.365Z,97723.16
2023-03-17T01:22:14.161Z,97721.72
2023-03-17T01:24:44.593Z,97722.28
2023-03-17T01:27:17.669Z,97720.06
2023-03-17T01:29:47.982Z,97722.03
2023-03-17T01:32:18.021Z,97729.91
2023-03-17T01:34:48.055Z,97726.25
2023-03-17T01:37:18.263Z,97721.69
2023-03-17T01:39:48.277Z,97725.34
2023-03-17T01:42:20.947Z,97726.28
2023-03-17T01:45:01.386Z,97718.72
2023-03-17T01:47:32.809Z,97729.00
2023-03-17T01:50:07.976Z,97718.09
2023-03-17T01:52:41.572Z,97720.34
2023-03-17T01:55:14.918Z,97720.38
2023-03-17T01:57:50.910Z,97716.56
2023-03-17T02:00:23.596Z,97717.00
2023-03-17T02:02:57.956Z,97710.28
2023-03-17T02:05:31.077Z,97708.88
2023-03-17T02:08:01.850Z,97699.56
2023-03-17T02:10:33.668Z,97699.03
2023-03-17T02:13:07.869Z,97690.72
2023-03-17T02:15:42.364Z,97703.38
2023-03-17T02:18:14.139Z,97707.31
2023-03-17T02:21:16.839Z,97705.56
2023-03-17T02:23:50.232Z,97704.94
2023-03-17T02:26:23.370Z,97705.28
2023-03-17T02:28:53.966Z,97705.44
2023-03-17T02:31:25.201Z,97708.13
2023-03-17T02:33:56.787Z,97707.97
2023-03-17T02:36:27.884Z,97711.44
2023-03-17T02:39:01.463Z,97710.50
2023-03-17T02:41:34.376Z,97715.84
2023-03-17T02:44:04.938Z,97713.16
2023-03-17T02:46:34.942Z,97713.50
2023-03-17T02:49:05.629Z,97716.66
2023-03-17T02:51:36.029Z,97703.41
2023-03-17T02:54:08.781Z,97708.75
2023-03-17T02:56:38.690Z,97707.16
2023-03-17T02:59:08.803Z,97703.53
2023-03-17T03:01:39.015Z,97711.09
2023-03-17T03:04:10.095Z,97709.06
2023-03-17T03:06:40.015Z,97705.91
2023-03-17T03:09:13.274Z,97693.31
2023-03-17T03:11:43.945Z,97694.84
2023-03-17T03:14:14.236Z,97680.94
2023-03-17T03:16:44.444Z,97691.03
2023-03-17T03:19:14.483Z,97700.97
2023-03-17T03:21:44.635Z,97686.16
2023-03-17T03:24:17.624Z,97687.56
2023-03-17T03:26:47.880Z,97680.63
2023-03-17T03:29:18.181Z,97677.44
2023-03-17T03:31:48.676Z,97677.69
2023-03-17T03:34:19.211Z,97684.66
2023-03-17T03:36:49.214Z,97691.88
2023-03-17T03:39:22.147Z,97692.66
2023-03-17T03:41:52.144Z,97693.03
2023-03-17T03:44:22.323Z,97684.34
2023-03-17T03:46:52.458Z,97699.19
2023-03-17T03:49:22.779Z,97678.06
2023-03-17T03:51:52.662Z,97682.66
2023-03-17T03:54:25.223Z,97694.22
2023-03-17T03:56:55.084Z,97699.91
2023-03-17T03:59:25.143Z,97691.88
2023-03-17T04:01:55.021Z,97693.91
2023-03-17T04:04:25.431Z,97691.69
2023-03-17T04:06:55.568Z,97681.72
2023-03-17T04:09:28.513Z,97687.88
2023-03-17T04:11:59.139Z,97692.06
2023-03-17T04:14:29.149Z,97688.59
2023-03-17T04:16:59.217Z,97679.56
2023-03-17T04:19:29.073Z,97676.22
2023-03-17T04:21:59.393Z,97679.69
2023-03-17T04:24:32.007Z,97671.16
2023-03-17T04:27:04.821Z,97685.31
2023-03-17T04:29:36.218Z,97683.97
2023-03-17T04:32:07.240Z,97674.66
2023-03-17T04:34:37.433Z,97678.84
2023-03-17T04:37:07.771Z,97675.97
2023-03-17T04:39:40.864Z,97681.00
2023-03-17T04:42:11.372Z,97681.25
2023-03-17T04:44:41.450Z,97677.69
2023-03-17T04:47:11.849Z,97664.78
2023-03-17T04:49:42.113Z,97665.44
2023-03-17T04:52:13.064Z,97665.38
2023-03-17T04:54:45.737Z,97670.09
2023-03-17T04:57:15.993Z,97667.84
2023-03-17T04:59:46.263Z,97662.38
2023-03-17T05:02:16.592Z,97664.22
2023-03-17T05:04:46.820Z,97656.75
2023-03-17T05:07:17.446Z,97650.78
2023-03-17T05:09:50.626Z,97650.78
2023-03-17T05:12:20.640Z,97662.03
2023-03-17T05:14:53.909Z,97652.22
2023-03-17T05:17:24.217Z,97650.94
2023-03-17T05:19:54.241Z,97647.72
2023-03-17T05:22:24.485Z,97641.69
2023-03-17T05:24:57.028Z,97640.31
2023-03-17T05:27:26.944Z,97643.56
2023-03-17T05:29:56.908Z,97642.84
2023-03-17T05:32:27.374Z,97647.00
2023-03-17T05:34:57.975Z,97645.91
2023-03-17T05:37:28.790Z,97651.09
2023-03-17T05:40:01.339Z,97659.00
2023-03-17T05:42:31.305Z,97656.72
2023-03-17T05:45:01.439Z,97664.66
2023-03-17T05:47:32.645Z,97673.84
2023-03-17T05:50:02.949Z,97670.75
2023-03-17T05:52:33.255Z,97671.63
2023-03-17T05:55:06.055Z,97671.28
2023-03-17T05:57:36.228Z,97676.38
2023-03-17T06:00:08.031Z,97660.50
2023-03-17T06:02:38.495Z,97665.06
2023-03-17T06:05:10.141Z,97661.72
2023-03-17T06:07:51.547Z,97661.31
2023-03-17T06:10:26.589Z,97666.50
2023-03-17T06:12:57.204Z,97659.38
2023-03-17T06:15:27.743Z,97651.28
2023-03-17T06:17:57.954Z,97657.50
2023-03-17T06:20:28.304Z,97651.88
2023-03-17T06:23:04.364Z,97657.59
2023-03-17T06:25:38.644Z,97678.16
2023-03-17T06:28:08.859Z,97686.59
2023-03-17T06:30:40.899Z,97680.53
2023-03-17T06:33:11.579Z,97676.31
2023-03-17T06:35:41.748Z,97682.41
2023-03-17T06:38:11.856Z,97688.34
2023-03-17T06:40:44.987Z,97687.13
2023-03-17T06:43:15.336Z,97689.81
2023-03-17T06:45:45.611Z,97687.94
2023-03-17T06:48:15.685Z,97690.06
2023-03-17T06:50:47.454Z,97679.59
2023-03-17T06:53:17.540Z,97681.88
2023-03-17T06:55:50.324Z,97678.97
2023-03-17T06:58:20.846Z,97674.72
2023-03-17T07:00:54.152Z,97674.78
2023-03-17T07:03:25.802Z,97684.22
2023-03-17T07:05:55.805Z,97679.41
2023-03-17T07:08:25.897Z,97684.03
2023-03-17T07:11:00.171Z,97685.03
2023-03-17T07:13:30.212Z,97688.34
2023-03-17T07:16:00.810Z,97684.31
2023-03-17T07:18:32.342Z,97686.06
2023-03-17T07:21:03.209Z,97679.69
2023-03-17T07:23:33.279Z,97698.22
2023-03-17T07:26:06.910Z,97699.06
2023-03-17T07:28:36.936Z,97695.03
2023-03-17T07:31:09.218Z,97700.50
2023-03-17T07:33:39.557Z,97691.00
2023-03-17T07:36:11.063Z,97688.19
2023-03-17T07:38:42.102Z,97683.34
2023-03-17T07:41:15.187Z,97674.91
2023-03-17T07:43:45.786Z,97677.59
2023-03-17T07:46:15.803Z,97676.88
2023-03-17T07:48:46.577Z,97687.34
2023-03-17T07:51:21.542Z,97685.44
2023-03-17T07:53:52.383Z,97680.00
2023-03-17T07:56:24.910Z,97677.44
2023-03-17T07:58:55.094Z,97680.31
2023-03-17T08:01:25.565Z,97681.34
2023-03-17T08:03:56.562Z,97662.84
2023-03-17T08:06:27.688Z,97667.84
2023-03-17T08:08:58.437Z,97670.44
2023-03-17T08:11:31.222Z,97661.88
2023-03-17T08:14:01.704Z,97661.78
2023-03-17T08:16:32.602Z,97662.25
2023-03-17T08:19:04.458Z,97667.53
2023-03-17T08:21:34.401Z,97668.72
2023-03-17T08:24:05.438Z,97671.28
2023-03-17T08:26:38.351Z,97670.00
2023-03-17T08:29:08.485Z,97676.94
2023-03-17T08:31:40.620Z,97676.53
2023-03-17T08:34:11.550Z,97671.16
2023-03-17T08:36:41.954Z,97667.97
2023-03-17T08:39:12.657Z,97659.66
2023-03-17T08:41:45.465Z,97670.13
2023-03-17T08:44:16.733Z,97666.03
2023-03-17T08:46:47.516Z,97651.63
2023-03-17T08:49:17.782Z,97653.56
2023-03-17T08:51:49.194Z,97658.28
2023-03-17T08:54:19.273Z,97651.94
2023-03-17T08:56:52.187Z,97658.50
2023-03-17T08:59:22.124Z,97649.97
2023-03-17T09:01:54.716Z,97646.22
2023-03-17T09:04:26.774Z,97639.09
2023-03-17T09:07:06.588Z,97642.59
2023-03-17T09:09:38.631Z,97644.66
2023-03-17T09:12:11.840Z,97644.09
2023-03-17T09:14:44.113Z,97638.22
2023-03-17T09:17:15.761Z,97637.91
2023-03-17T09:19:46.276Z,97633.44
2023-03-17T09:22:17.685Z,97640.19
2023-03-17T09:24:48.367Z,97633.50
2023-03-17T09:27:21.028Z,97641.19
2023-03-17T09:29:51.207Z,97632.13
2023-03-17T09:32:21.500Z,97635.22
2023-03-17T09:34:51.797Z,97630.53
2023-03-17T09:37:22.002Z,97627.25
2023-03-17T09:39:52.021Z,97628.38
2023-03-17T09:42:36.452Z,97634.22
2023-03-17T09:45:23.077Z,97630.28
2023-03-17T09:48:05.463Z,97629.50
2023-03-17T09:50:41.623Z,97627.59
2023-03-17T09:53:19.164Z,97638.88
2023-03-17T09:55:51.737Z,97627.94
2023-03-17T09:58:32.355Z,97623.03
2023-03-17T10:01:03.641Z,97628.19
2023-03-17T10:03:34.245Z,97617.25
2023-03-17T10:06:19.919Z,97616.94
2023-03-17T10:08:57.756Z,97614.47
2023-03-17T10:11:38.502Z,97617.47
2023-03-17T10:14:32.026Z,97617.22
2023-03-17T10:17:09.644Z,97619.09
2023-03-17T10:19:47.073Z,97609.78
2023-03-17T10:22:23.849Z,97606.03
2023-03-17T10:24:57.371Z,97596.38
2023-03-17T10:27:28.109Z,97596.41
2023-03-17T10:30:01.234Z,97592.88
2023-03-17T10:32:34.172Z,97588.72
2023-03-17T10:35:04.866Z,97586.97
2023-03-17T10:37:37.012Z,97581.50
2023-03-17T10:40:10.716Z,97583.38
2023-03-17T10:42:49.849Z,97585.53
2023-03-17T10:45:29.902Z,97581.81
2023-03-17T10:48:01.637Z,97581.69
2023-03-17T10:50:34.511Z,97574.69
2023-03-17T10:53:09.937Z,97572.13
2023-03-17T10:55:45.453Z,97567.50
2023-03-17T10:58:18.973Z,97573.84
2023-03-17T11:01:00.413Z,97578.81
2023-03-17T11:03:34.006Z,97573.66
2023-03-17T11:06:06.558Z,97569.94
2023-03-17T11:08:40.250Z,97569.19
2023-03-17T11:11:13.255Z,97556.78
2023-03-17T11:13:43.539Z,97559.56
2023-03-17T11:16:24.087Z,97558.59
2023-03-17T11:18:57.946Z,97549.81
2023-03-17T11:21:33.017Z,97552.09
2023-03-17T11:24:10.579Z,97540.69
2023-03-17T11:26:58.205Z,97535.81
2023-03-17T11:29:51.570Z,97540.63
2023-03-17T11:32:31.677Z,97532.78
2023-03-17T11:35:17.482Z,97527.22
2023-03-17T11:38:05.391Z,97529.38
2023-03-17T11:40:38.849Z,97525.78
2023-03-17T11:43:26.319Z,97519.13
2023-03-17T11:46:04.862Z,97520.53
2023-03-17T11:48:47.590Z,97513.00
2023-03-17T11:51:27.966Z,97512.06
2023-03-17T11:54:09.792Z,97510.59
2023-03-17T11:56:48.161Z,97506.44
2023-03-17T11:59:29.219Z,97504.88
2023-03-17T12:02:06.827Z,97501.47
2023-03-17T12:04:46.771Z,97504.16
2023-03-17T12:07:22.195Z,97495.16
2023-03-17T12:10:01.412Z,97498.00
2023-03-17T12:12:34.762Z,97487.50
2023-03-17T12:15:06.351Z,97491.00
2023-03-17T12:17:39.631Z,97484.94
2023-03-17T12:20:18.700Z,97486.16
2023-03-17T12:22:57.093Z,97481.81
2023-03-17T12:25:33.478Z,97475.84
2023-03-17T12:28:08.686Z,97471.09
2023-03-17T12:30:47.930Z,97459.44
2023-03-17T12:33:27.573Z,97476.88
2023-03-17T12:36:01.300Z,97468.59
2023-03-17T12:38:38.532Z,97465.50
2023-03-17T12:41:28.875Z,97471.91
2023-03-17T12:44:08.033Z,97457.97
2023-03-17T12:47:06.962Z,97458.81
2023-03-17T12:50:08.901Z,97443.31
2023-03-17T12:52:53.932Z,97451.78
2023-03-17T12:55:28.172Z,97451.22
2023-03-17T12:58:03.909Z,97459.19
2023-03-17T13:00:36.499Z,97446.00
2023-03-17T13:03:24.875Z,97445.25
2023-03-17T13:05:57.456Z,97448.31
2023-03-17T13:08:33.569Z,97443.25
2023-03-17T13:11:23.888Z,97437.47
2023-03-17T13:14:17.493Z,97423.88
2023-03-17T13:16:49.699Z,97416.22
2023-03-17T13:19:26.911Z,97417.03
2023-03-17T13:22:28.982Z,97418.19
2023-03-17T13:25:18.432Z,97405.94
2023-03-17T13:27:50.060Z,97415.44
2023-03-17T13:30:59.815Z,97405.94
2023-03-17T13:33:34.104Z,97404.50
2023-03-17T13:36:34.829Z,97403.25
2023-03-17T13:39:27.734Z,97392.00
2023-03-17T13:42:32.983Z,97389.91
2023-03-17T13:45:38.338Z,97384.25
2023-03-17T13:48:37.475Z,97381.94
2023-03-17T13:51:20.704Z,97376.72
2023-03-17T13:53:54.613Z,97380.59
2023-03-17T13:56:30.487Z,97379.47
2023-03-17T13:59:12.017Z,97376.50
2023-03-17T14:01:50.029Z,97380.38
2023-03-17T14:04:23.754Z,97370.00
2023-03-17T14:06:57.317Z,97368.13
2023-03-17T14:09:38.114Z,97360.66
2023-03-17T14:12:15.696Z,97364.59
2023-03-17T14:14:53.495Z,97360.34
2023-03-17T14:20:31.628Z,97361.38
2023-03-17T14:23:04.121Z,97350.53
2023-03-17T14:25:36.981Z,97352.34
2023-03-17T14:28:11.185Z,97362.44
2023-03-17T14:30:42.103Z,97349.44
2023-03-17T14:33:27.569Z,97341.50
2023-03-17T14:36:01.825Z,97343.91
2023-03-17T14:38:33.830Z,97338.63
2023-03-17T14:41:05.715Z,97340.78
2023-03-17T14:43:37.280Z,97333.81
2023-03-17T14:46:08.646Z,97331.56
2023-03-17T14:48:45.047Z,97337.47
2023-03-17T14:51:27.272Z,97331.19
2023-03-17T14:54:01.183Z,97334.88
2023-03-17T14:56:37.981Z,97327.22
2023-03-17T14:59:09.622Z,97312.50
2023-03-17T15:01:41.514Z,97320.91
2023-03-17T15:04:18.397Z,97326.81
2023-03-17T15:06:53.596Z,97325.50
2023-03-17T15:09:31.631Z,97327.81
2023-03-17T15:12:07.197Z,97328.59
2023-03-17T15:14:41.504Z,97327.63
2023-03-17T15:17:20.048Z,97325.81
2023-03-17T15:19:58.508Z,97324.19
2023-03-17T15:22:33.381Z,97321.97
2023-03-17T15:25:06.318Z,97318.16
2023-03-17T15:27:36.310Z,97320.34
2023-03-17T15:30:07.568Z,97329.03
2023-03-17T15:32:38.175Z,97318.09
2023-03-17T15:35:15.920Z,97323.50
2023-03-17T15:37:46.013Z,97324.25
2023-03-17T15:40:17.152Z,97329.31
2023-03-17T15:42:47.784Z,97326.72
2023-03-17T15:45:18.041Z,97322.84
2023-03-17T15:47:50.105Z,97321.63
2023-03-17T15:50:28.633Z,97314.00
2023-03-17T15:52:59.319Z,97312.03
2023-03-17T15:55:32.077Z,97316.03
2023-03-17T15:58:02.981Z,97312.34
2023-03-17T16:00:33.935Z,97317.66
2023-03-17T16:03:11.707Z,97312.94
2023-03-17T16:05:45.456Z,97310.59
2023-03-17T16:08:18.014Z,97306.13
2023-03-17T16:10:48.496Z,97317.22
2023-03-17T16:13:18.377Z,97310.34
2023-03-17T16:15:55.927Z,97313.84
2023-03-17T16:18:34.257Z,97308.78
2023-03-17T16:21:07.754Z,97307.91
2023-03-17T16:23:39.051Z,97311.16
2023-03-17T16:26:16.122Z,97305.56
2023-03-17T16:28:49.639Z,97306.69
2023-03-17T16:31:23.673Z,97290.75
2023-03-17T16:33:55.022Z,97304.75
2023-03-17T16:36:28.642Z,97306.91
2023-03-17T16:38:58.952Z,97298.19
2023-03-17T16:41:30.895Z,97299.56
2023-03-17T16:44:03.139Z,97299.31
2023-03-17T16:46:36.945Z,97302.94
2023-03-17T16:49:07.892Z,97308.38
2023-03-17T16:51:40.781Z,97304.75
2023-03-17T16:54:10.872Z,97312.22
2023-03-17T16:56:41.783Z,97306.00
2023-03-17T16:59:17.130Z,97310.06
2023-03-17T17:01:47.371Z,97307.94
2023-03-17T17:04:17.368Z,97326.69
2023-03-17T17:06:50.344Z,97325.34
2023-03-17T17:09:20.739Z,97324.75
2023-03-17T17:11:51.041Z,97327.78
2023-03-17T17:14:21.345Z,97333.34
2023-03-17T17:16:51.840Z,97330.63
2023-03-17T17:19:24.501Z,97338.44
2023-03-17T17:21:57.505Z,97330.59
2023-03-17T17:24:27.578Z,97330.44
2023-03-17T17:26:57.864Z,97337.22
2023-03-17T17:29:30.667Z,97345.22
2023-03-17T17:32:04.827Z,97351.16
2023-03-17T17:34:39.195Z,97352.94
2023-03-17T17:37:14.602Z,97353.34
2023-03-17T17:39:44.614Z,97354.25
2023-03-17T17:42:16.889Z,97363.38
2023-03-17T17:44:46.893Z,97367.81
2023-03-17T17:47:17.935Z,97372.25
2023-03-17T17:49:49.542Z,97375.44
2023-03-17T17:52:22.353Z,97378.06
2023-03-17T17:55:01.669Z,97387.03
2023-03-17T17:57:33.758Z,97391.06
2023-03-17T18:00:06.672Z,97406.75
2023-03-17T18:02:39.241Z,97408.13
2023-03-17T18:05:10.306Z,97410.56
2023-03-17T18:07:43.962Z,97413.56
2023-03-17T18:10:22.490Z,97411.31
2023-03-17T18:12:53.889Z,97404.91
2023-03-17T18:15:26.276Z,97405.09
2023-03-17T18:17:57.711Z,97408.00
2023-03-17T18:20:28.831Z,97407.72
2023-03-17T18:23:03.509Z,97407.41
2023-03-17T18:25:35.141Z,97412.66
2023-03-17T18:28:05.407Z,97423.88
2023-03-17T18:30:36.657Z,97427.69
2023-03-17T18:33:11.745Z,97428.38
2023-03-17T18:35:43.801Z,97430.06
2023-03-17T18:38:17.707Z,97431.84
2023-03-17T18:40:47.913Z,97432.97
2023-03-17T18:43:20.037Z,97431.22
2023-03-17T18:45:52.241Z,97437.19
2023-03-17T18:48:23.147Z,97435.31
2023-03-17T18:50:54.530Z,97437.72
2023-03-17T18:53:34.467Z,97440.25
2023-03-17T18:56:04.752Z,97447.72
2023-03-17T18:58:34.769Z,97451.69
2023-03-17T19:01:06.668Z,97450.66
2023-03-17T19:03:37.055Z,97453.66
2023-03-17T19:06:13.058Z,97448.84
2023-03-17T19:08:51.182Z,97452.28
2023-03-17T19:11:23.144Z,97448.03
2023-03-17T19:13:56.198Z,97450.69
2023-03-17T19:16:29.271Z,97461.84
2023-03-17T19:18:59.639Z,97461.09
2023-03-17T19:21:30.274Z,97469.81
2023-03-17T19:24:05.743Z,97459.59
2023-03-17T19:26:36.146Z,97465.00
2023-03-17T19:29:07.259Z,97459.13
2023-03-17T19:31:41.400Z,97463.00
2023-03-17T19:34:12.738Z,97466.34
2023-03-17T19:36:46.572Z,97469.13
2023-03-17T19:39:19.595Z,97471.09
2023-03-17T19:41:53.625Z,97476.66
2023-03-17T19:44:24.502Z,97481.31
2023-03-17T19:46:55.164Z,97478.63
2023-03-17T19:49:25.118Z,97474.16
2023-03-17T19:51:55.024Z,97479.19
2023-03-17T19:54:28.356Z,97475.94
2023-03-17T19:56:58.784Z,97474.94
2023-03-17T19:59:28.756Z,97466.84
2023-03-17T20:01:59.102Z,97469.34
2023-03-17T20:04:29.249Z,97476.34
2023-03-17T20:06:59.593Z,97472.88
2023-03-17T20:09:32.666Z,97482.81
2023-03-17T20:12:02.617Z,97482.41
2023-03-17T20:14:33.342Z,97474.22
2023-03-17T20:17:03.341Z,97468.00
2023-03-17T20:19:33.414Z,97480.19
2023-03-17T20:22:03.439Z,97484.16
2023-03-17T20:24:37.163Z,97490.41
2023-03-17T20:27:10.670Z,97494.31
2023-03-17T20:29:41.427Z,97494.34
2023-03-17T20:32:12.035Z,97492.38
2023-03-17T20:34:42.289Z,97498.03
2023-03-17T20:37:14.194Z,97497.47
2023-03-17T20:39:47.166Z,97506.31
2023-03-17T20:42:20.448Z,97516.47
2023-03-17T20:44:53.174Z,97517.53
2023-03-17T20:47:26.698Z,97514.19
2023-03-17T20:49:59.060Z,97519.75
2023-03-17T20:52:30.690Z,97508.09
2023-03-17T20:55:06.019Z,97519.53
2023-03-17T20:57:36.300Z,97520.31
2023-03-17T21:00:16.531Z,97526.44
2023-03-17T21:02:48.606Z,97516.94
2023-03-17T21:05:21.519Z,97531.19
2023-03-17T21:07:52.023Z,97530.59
2023-03-17T21:10:25.119Z,97520.06
2023-03-17T21:12:55.304Z,97513.84
2023-03-17T21:15:25.719Z,97515.88
2023-03-17T21:17:56.533Z,97513.50
2023-03-17T21:20:26.415Z,97519.75
2023-03-17T21:22:56.952Z,97517.19
2023-03-17T21:25:29.570Z,97520.34
2023-03-17T21:28:00.370Z,97521.06
2023-03-17T21:30:30.724Z,97519.03
2023-03-17T21:33:01.653Z,97517.78
2023-03-17T21:35:34.735Z,97522.16
2023-03-17T21:38:05.081Z,97515.97
2023-03-17T21:40:38.005Z,97519.94
2023-03-17T21:43:08.170Z,97515.63
2023-03-17T21:45:38.984Z,97516.88
2023-03-17T21:48:09.329Z,97516.16
2023-03-17T21:50:40.074Z,97517.78
2023-03-17T21:53:10.369Z,97510.03
2023-03-17T21:55:42.994Z,97520.88
2023-03-17T21:58:12.983Z,97521.47
2023-03-17T22:00:45.987Z,97515.59
2023-03-17T22:03:16.781Z,97517.97
2023-03-17T22:05:47.299Z,97534.06
2023-03-17T22:08:17.540Z,97534.06
2023-03-17T22:10:50.155Z,97538.38
2023-03-17T22:13:20.542Z,97542.69
2023-03-17T22:15:50.997Z,97547.16
2023-03-17T22:18:21.369Z,97549.31
2023-03-17T22:20:51.207Z,97545.56
2023-03-17T22:23:21.111Z,97549.31
2023-03-17T22:25:53.888Z,97547.94
2023-03-17T22:28:24.372Z,97551.81
2023-03-17T22:30:54.642Z,97549.25
2023-03-17T22:33:24.705Z,97553.34
2023-03-17T22:35:55.117Z,97553.31
2023-03-17T22:38:25.248Z,97566.06
2023-03-17T22:41:08.175Z,97568.00
2023-03-17T22:43:40.183Z,97571.13
2023-03-17T22:46:11.433Z,97569.38
2023-03-17T22:48:41.516Z,97576.63
2023-03-17T22:51:14.811Z,97578.22
2023-03-17T22:53:45.747Z,97570.75
2023-03-17T22:56:20.295Z,97573.94
2023-03-17T22:58:50.907Z,97577.81
2023-03-17T23:01:22.512Z,97579.75
2023-03-17T23:03:53.302Z,97586.06
2023-03-17T23:06:24.903Z,97582.16
2023-03-17T23:08:55.108Z,97579.81
2023-03-17T23:11:29.277Z,97589.84
2023-03-17T23:13:59.315Z,97592.38
2023-03-17T23:16:29.674Z,97600.84
2023-03-17T23:19:00.108Z,97595.75
2023-03-17T23:21:32.101Z,97600.25
2023-03-17T23:24:02.462Z,97596.34
2023-03-17T23:26:36.075Z,97600.47
2023-03-17T23:29:06.089Z,97610.44
2023-03-17T23:31:36.876Z,97610.44
2023-03-17T23:34:07.563Z,97609.69
2023-03-17T23:36:40.261Z,97609.28
2023-03-17T23:39:11.330Z,97611.44
2023-03-17T23:41:45.261Z,97609.28
2023-03-17T23:44:15.400Z,97609.69
2023-03-17T23:46:46.467Z,97614.56
2023-03-17T23:49:16.757Z,97610.47
2023-03-17T23:51:48.348Z,97609.50
2023-03-17T23:54:18.394Z,97619.84
2023-03-17T23:56:51.368Z,97618.50
2023-03-17T23:59:21.403Z,97619.06
